Time;durP1;ratioP1;P1;durP2;ratioP2;P2;SDS_P1;SDS_P2;PMS_P1;PMS_P2;Temp;Humidity;BMP_temperature;BMP_pressure;BME280_temperature;BME280_humidity;BME280_pressure;Samples;Min_cycle;Max_cycle;Signal;HPM_P1;HPM_P2
2023/09/08 00:02:02;;;;;;;;;;;18.60;81.70;;;;;;5020757;28;19913;-85
2023/09/08 00:04:27;;;;;;;;;;;18.50;81.60;;;;;;5032213;28;19976;-85
2023/09/08 00:06:53;;;;;;;;;;;18.50;81.30;;;;;;5025466;28;19914;-85
2023/09/08 00:09:18;;;;;;;;;;;18.40;81.80;;;;;;5019026;28;19968;-86
2023/09/08 00:11:44;;;;;;;;;;;18.40;81.80;;;;;;5027310;28;20020;-85
2023/09/08 00:14:09;;;;;;;;;;;18.40;81.70;;;;;;5022540;28;19985;-84
2023/09/08 00:16:35;;;;;;;;;;;18.40;82.00;;;;;;5030058;28;19909;-85
2023/09/08 00:19:00;;;;;;;;;;;18.50;81.70;;;;;;5033238;28;19913;-85
2023/09/08 00:21:26;;;;;;;;;;;18.40;81.80;;;;;;5023370;28;19921;-85
2023/09/08 00:23:52;;;;;;;;;;;18.40;82.00;;;;;;5022744;28;19921;-85
2023/09/08 00:26:17;;;;;;;;;;;18.40;82.10;;;;;;5034640;28;19917;-86
2023/09/08 00:28:43;;;;;;;;;;;18.50;81.80;;;;;;5035510;28;19913;-86
2023/09/08 00:31:08;;;;;;;;;;;18.50;81.70;;;;;;5028833;28;20008;-85
2023/09/08 00:33:34;;;;;;;;;;;18.50;81.90;;;;;;5017396;28;19918;-86
2023/09/08 00:35:59;;;;;;;;;;;18.40;81.90;;;;;;5023034;28;20008;-86
2023/09/08 00:38:25;;;;;;;;;;;18.30;81.60;;;;;;5016120;28;19917;-85
2023/09/08 00:40:50;;;;;;;;;;;18.30;81.60;;;;;;5029721;28;19918;-86
2023/09/08 00:43:16;;;;;;;;;;;18.30;81.90;;;;;;5026141;28;19921;-85
2023/09/08 00:45:42;;;;;;;;;;;18.30;82.20;;;;;;5032198;28;19924;-86
2023/09/08 00:48:09;;;;;;;;;;;18.20;82.40;;;;;;5041111;28;19933;-86
2023/09/08 00:50:35;;;;;;;;;;;18.30;82.20;;;;;;5024916;28;19921;-86
2023/09/08 00:53:01;;;;;;;;;;;18.20;82.20;;;;;;5016772;28;19948;-86
2023/09/08 00:55:26;;;;;;;;;;;18.20;82.50;;;;;;5019219;28;19951;-85
2023/09/08 00:57:52;;;;;;;;;;;18.20;82.70;;;;;;5032391;28;19918;-86
2023/09/08 01:00:17;;;;;;;;;;;18.30;82.40;;;;;;5029416;28;20012;-85
2023/09/08 01:02:44;;;;;;;;;;;18.20;82.90;;;;;;5018453;28;20363;-85
2023/09/08 01:05:10;;;;;;;;;;;18.10;83.10;;;;;;5020392;28;20383;-86
2023/09/08 01:07:36;;;;;;;;;;;18.10;83.00;;;;;;5016983;28;19951;-86
2023/09/08 01:10:06;;;;;;;;;;;18.10;82.60;;;;;;5033361;28;19913;-85
2023/09/08 01:12:31;;;;;;;;;;;18.20;82.60;;;;;;5017921;28;19921;-85
2023/09/08 01:14:57;;;;;;;;;;;18.30;82.40;;;;;;5026393;28;19909;-85
2023/09/08 01:17:22;;;;;;;;;;;18.20;82.00;;;;;;5015947;28;19917;-85
2023/09/08 01:19:48;;;;;;;;;;;18.20;82.10;;;;;;5026851;28;19917;-85
2023/09/08 01:22:23;;;;;;;;;;;18.20;82.20;;;;;;5023519;28;19936;-85
2023/09/08 01:25:06;;;;;;;;;;;18.10;82.20;;;;;;5031841;28;21154;-84
2023/09/08 01:27:33;;;;;;;;;;;18.00;82.40;;;;;;5029764;28;19920;-84
2023/09/08 01:30:00;;;;;;;;;;;17.90;82.40;;;;;;5013736;28;19913;-85
2023/09/08 01:32:26;;;;;;;;;;;17.90;82.60;;;;;;5025587;28;19913;-85
2023/09/08 01:34:52;;;;;;;;;;;17.90;82.60;;;;;;5019725;28;19968;-85
2023/09/08 01:37:17;;;;;;;;;;;17.90;82.60;;;;;;5026815;28;20354;-85
2023/09/08 01:39:43;;;;;;;;;;;17.80;82.80;;;;;;5017324;28;20498;-85
2023/09/08 01:42:08;;;;;;;;;;;17.90;82.70;;;;;;5013346;28;19913;-85
2023/09/08 01:44:34;;;;;;;;;;;17.70;82.60;;;;;;5019283;28;19960;-85
2023/09/08 01:46:59;;;;;;;;;;;17.70;83.00;;;;;;5029692;28;19921;-83
2023/09/08 01:49:25;;;;;;;;;;;17.70;83.50;;;;;;5022880;28;19914;-85
2023/09/08 01:51:50;;;;;;;;;;;17.60;83.30;;;;;;5022200;28;19917;-85
2023/09/08 01:54:16;;;;;;;;;;;17.70;83.50;;;;;;5022537;28;20015;-84
2023/09/08 01:56:41;;;;;;;;;;;17.70;83.60;;;;;;5029527;28;19918;-85
2023/09/08 01:59:07;;;;;;;;;;;17.60;82.80;;;;;;5019870;28;20000;-85
2023/09/08 02:01:32;;;;;;;;;;;17.60;83.00;;;;;;5017420;28;19913;-86
2023/09/08 02:03:58;;;;;;;;;;;17.70;83.10;;;;;;5037083;28;20333;-85
2023/09/08 02:06:23;;;;;;;;;;;17.80;82.50;;;;;;5034425;28;19948;-85
2023/09/08 02:08:49;;;;;;;;;;;17.70;83.10;;;;;;5027836;28;19921;-85
2023/09/08 02:11:14;;;;;;;;;;;17.70;82.50;;;;;;5028858;28;19920;-85
2023/09/08 02:13:43;;;;;;;;;;;17.60;82.70;;;;;;5027754;28;19951;-85
2023/09/08 02:16:12;;;;;;;;;;;17.60;83.30;;;;;;5025414;28;19935;-86
2023/09/08 02:18:38;;;;;;;;;;;17.60;83.20;;;;;;5024428;28;19917;-85
2023/09/08 02:21:04;;;;;;;;;;;17.50;83.50;;;;;;5030661;28;19927;-85
2023/09/08 02:23:29;;;;;;;;;;;17.60;82.90;;;;;;5027707;28;19913;-83
2023/09/08 02:25:58;;;;;;;;;;;17.60;83.10;;;;;;5023843;28;19960;-85
2023/09/08 02:28:24;;;;;;;;;;;17.60;83.00;;;;;;5040486;28;19913;-85
2023/09/08 02:30:49;;;;;;;;;;;17.60;83.30;;;;;;5046160;28;19945;-84
2023/09/08 02:33:15;;;;;;;;;;;17.50;83.50;;;;;;5029770;28;19913;-85
2023/09/08 02:35:40;;;;;;;;;;;17.50;83.50;;;;;;5021474;28;20378;-85
2023/09/08 02:38:06;;;;;;;;;;;17.50;83.50;;;;;;5017084;28;19921;-84
2023/09/08 02:40:34;;;;;;;;;;;17.40;83.60;;;;;;5018528;28;19909;-85
2023/09/08 02:43:02;;;;;;;;;;;17.50;83.50;;;;;;5025792;28;20379;-85
2023/09/08 02:45:28;;;;;;;;;;;17.50;83.90;;;;;;5026811;28;19920;-86
2023/09/08 02:47:53;;;;;;;;;;;17.40;83.80;;;;;;5025261;28;19914;-85
2023/09/08 02:50:19;;;;;;;;;;;17.50;83.70;;;;;;5025211;28;19965;-85
2023/09/08 02:52:45;;;;;;;;;;;17.40;83.70;;;;;;5037773;28;19945;-84
2023/09/08 02:55:11;;;;;;;;;;;17.40;83.90;;;;;;5033339;28;19913;-85
2023/09/08 02:57:37;;;;;;;;;;;17.40;84.00;;;;;;5022838;23;19965;-89
2023/09/08 03:00:03;;;;;;;;;;;17.50;84.10;;;;;;4987959;28;19963;-85
2023/09/08 03:02:30;;;;;;;;;;;17.40;84.20;;;;;;4993998;28;19945;-85
2023/09/08 03:04:55;;;;;;;;;;;17.40;83.90;;;;;;4997449;28;20055;-85
2023/09/08 03:07:20;;;;;;;;;;;17.40;84.00;;;;;;4998891;28;19917;-85
2023/09/08 03:09:46;;;;;;;;;;;17.30;83.90;;;;;;5015989;28;19992;-85
2023/09/08 03:12:12;;;;;;;;;;;17.30;83.60;;;;;;5011200;28;19920;-85
2023/09/08 03:14:37;;;;;;;;;;;17.30;84.00;;;;;;4995178;28;19948;-85
2023/09/08 03:17:03;;;;;;;;;;;17.30;83.50;;;;;;5000683;28;19937;-85
2023/09/08 03:19:28;;;;;;;;;;;17.20;83.60;;;;;;5014835;28;19933;-85
2023/09/08 03:21:54;;;;;;;;;;;17.30;83.40;;;;;;5023827;28;20370;-85
2023/09/08 03:24:19;;;;;;;;;;;17.30;83.40;;;;;;5002514;28;20390;-85
2023/09/08 03:26:45;;;;;;;;;;;17.30;83.50;;;;;;5010036;28;19922;-85
2023/09/08 03:29:10;;;;;;;;;;;17.20;83.60;;;;;;5022835;28;19940;-85
2023/09/08 03:31:36;;;;;;;;;;;17.10;84.00;;;;;;4993366;28;19920;-85
2023/09/08 03:34:01;;;;;;;;;;;17.30;83.70;;;;;;5018842;28;20446;-86
2023/09/08 03:36:27;;;;;;;;;;;17.30;83.70;;;;;;5018073;28;19917;-85
2023/09/08 03:38:52;;;;;;;;;;;17.10;84.00;;;;;;5013271;28;19971;-86
2023/09/08 03:41:18;;;;;;;;;;;17.10;84.20;;;;;;5023942;28;19913;-86
2023/09/08 03:43:43;;;;;;;;;;;17.10;84.20;;;;;;5013321;28;19920;-86
2023/09/08 03:46:09;;;;;;;;;;;17.10;84.20;;;;;;5007879;28;20421;-86
2023/09/08 03:48:34;;;;;;;;;;;17.00;84.10;;;;;;5024114;28;19908;-87
2023/09/08 03:50:59;;;;;;;;;;;17.00;84.10;;;;;;5024229;28;19913;-87
2023/09/08 03:53:25;;;;;;;;;;;17.00;84.10;;;;;;5025901;28;20305;-85
2023/09/08 03:55:51;;;;;;;;;;;16.90;84.00;;;;;;5004292;28;20507;-86
2023/09/08 03:58:16;;;;;;;;;;;16.90;83.90;;;;;;5008688;28;19922;-86
2023/09/08 04:00:42;;;;;;;;;;;16.90;84.30;;;;;;5001053;28;20386;-86
2023/09/08 04:03:08;;;;;;;;;;;17.00;84.30;;;;;;4999558;28;20457;-85
2023/09/08 04:05:33;;;;;;;;;;;17.00;84.10;;;;;;5026137;28;19913;-85
2023/09/08 04:07:59;;;;;;;;;;;17.00;84.20;;;;;;5013039;28;19940;-85
2023/09/08 04:10:24;;;;;;;;;;;17.00;83.60;;;;;;5033533;28;19980;-86
2023/09/08 04:12:50;;;;;;;;;;;17.00;83.00;;;;;;5033947;28;19902;-86
2023/09/08 04:15:15;;;;;;;;;;;16.90;83.80;;;;;;4997860;28;20471;-85
2023/09/08 04:17:41;;;;;;;;;;;16.80;83.70;;;;;;5030597;28;20003;-85
2023/09/08 04:20:07;;;;;;;;;;;16.90;83.70;;;;;;5001215;28;19913;-85
2023/09/08 04:22:33;;;;;;;;;;;16.90;83.50;;;;;;5030061;28;20005;-86
2023/09/08 04:24:58;;;;;;;;;;;16.90;82.90;;;;;;5001566;28;19932;-85
2023/09/08 04:27:24;;;;;;;;;;;17.00;82.70;;;;;;5019380;28;19913;-85
2023/09/08 04:29:49;;;;;;;;;;;17.00;82.90;;;;;;5007901;28;20613;-85
2023/09/08 04:32:15;;;;;;;;;;;16.80;83.40;;;;;;5003001;28;19917;-85
2023/09/08 04:34:41;;;;;;;;;;;16.70;84.10;;;;;;5001725;28;19995;-85
2023/09/08 04:37:07;;;;;;;;;;;16.60;84.30;;;;;;5007738;28;19935;-85
2023/09/08 04:39:33;;;;;;;;;;;16.60;84.50;;;;;;5003611;28;19968;-86
2023/09/08 04:41:58;;;;;;;;;;;16.60;84.30;;;;;;5008902;28;19916;-85
2023/09/08 04:44:24;;;;;;;;;;;16.60;84.60;;;;;;5029482;28;20286;-85
2023/09/08 04:46:49;;;;;;;;;;;16.50;84.50;;;;;;5017720;28;19917;-86
2023/09/08 04:49:15;;;;;;;;;;;16.60;84.10;;;;;;4998067;28;19920;-85
2023/09/08 04:51:40;;;;;;;;;;;16.60;84.20;;;;;;4996536;28;19913;-85
2023/09/08 04:54:06;;;;;;;;;;;16.60;83.90;;;;;;5000670;28;19920;-85
2023/09/08 04:56:31;;;;;;;;;;;16.60;83.70;;;;;;5028573;28;19921;-85
2023/09/08 04:58:57;;;;;;;;;;;16.60;83.90;;;;;;5024234;28;19913;-85
2023/09/08 05:01:23;;;;;;;;;;;16.50;83.90;;;;;;4997370;28;19913;-85
2023/09/08 05:03:49;;;;;;;;;;;16.50;84.10;;;;;;5015536;28;19925;-85
2023/09/08 05:06:14;;;;;;;;;;;16.40;84.40;;;;;;5026838;28;20322;-87
2023/09/08 05:08:39;;;;;;;;;;;16.40;84.70;;;;;;5026444;28;19940;-88
2023/09/08 05:11:05;;;;;;;;;;;16.60;84.40;;;;;;4995953;28;19913;-88
2023/09/08 05:13:30;;;;;;;;;;;16.50;84.30;;;;;;5000871;28;19913;-88
2023/09/08 05:16:10;;;;;;;;;;;16.50;84.40;;;;;;5002224;28;19995;-87
2023/09/08 05:18:38;;;;;;;;;;;16.50;84.60;;;;;;5009968;28;20409;-87
2023/09/08 05:21:04;;;;;;;;;;;16.50;84.80;;;;;;5001064;28;20358;-86
2023/09/08 05:23:30;;;;;;;;;;;16.50;84.90;;;;;;5029151;28;19968;-86
2023/09/08 05:25:55;;;;;;;;;;;16.50;85.30;;;;;;5001782;28;20326;-85
2023/09/08 05:28:20;;;;;;;;;;;16.50;85.50;;;;;;5014438;28;19921;-87
2023/09/08 05:30:46;;;;;;;;;;;16.60;85.60;;;;;;5021724;28;19913;-85
2023/09/08 05:33:11;;;;;;;;;;;16.60;85.60;;;;;;4997560;28;19960;-85
2023/09/08 05:35:37;;;;;;;;;;;16.50;85.50;;;;;;4993950;28;19963;-85
2023/09/08 05:38:02;;;;;;;;;;;16.50;85.30;;;;;;4997421;28;19971;-87
2023/09/08 05:40:28;;;;;;;;;;;16.60;85.40;;;;;;4997564;28;19917;-85
2023/09/08 05:42:53;;;;;;;;;;;16.50;85.40;;;;;;5009191;28;20305;-85
2023/09/08 05:45:19;;;;;;;;;;;16.60;85.40;;;;;;5020601;28;20024;-84
2023/09/08 05:47:44;;;;;;;;;;;16.60;85.00;;;;;;5019466;28;19920;-85
2023/09/08 05:50:10;;;;;;;;;;;16.60;85.20;;;;;;5028819;28;19957;-84
2023/09/08 05:52:36;;;;;;;;;;;16.60;85.10;;;;;;4997520;28;19913;-86
2023/09/08 05:55:01;;;;;;;;;;;16.70;85.40;;;;;;5006431;28;19971;-86
2023/09/08 05:57:27;;;;;;;;;;;16.60;85.40;;;;;;5018918;28;20013;-86
2023/09/08 05:59:52;;;;;;;;;;;16.70;85.60;;;;;;4995145;28;20405;-88
2023/09/08 06:02:18;;;;;;;;;;;16.70;85.80;;;;;;4995787;28;20011;-87
2023/09/08 06:04:44;;;;;;;;;;;16.80;85.80;;;;;;5008224;28;20020;-86
2023/09/08 06:07:09;;;;;;;;;;;16.80;85.80;;;;;;5042023;28;19941;-85
2023/09/08 06:09:34;;;;;;;;;;;16.80;86.00;;;;;;5035174;28;20397;-85
2023/09/08 06:12:00;;;;;;;;;;;16.80;86.40;;;;;;5020623;28;19913;-85
2023/09/08 06:14:26;;;;;;;;;;;16.90;86.20;;;;;;4996044;28;20003;-85
2023/09/08 06:16:51;;;;;;;;;;;16.90;86.40;;;;;;4993572;28;19917;-84
2023/09/08 06:19:16;;;;;;;;;;;16.90;86.70;;;;;;4994606;28;19920;-84
2023/09/08 06:21:42;;;;;;;;;;;17.00;86.70;;;;;;5015670;28;19913;-84
2023/09/08 06:24:07;;;;;;;;;;;17.10;86.70;;;;;;5015175;28;20032;-85
2023/09/08 06:26:33;;;;;;;;;;;17.10;86.60;;;;;;5013987;28;20382;-84
2023/09/08 06:28:58;;;;;;;;;;;17.20;86.70;;;;;;5013604;28;19922;-83
2023/09/08 06:31:24;;;;;;;;;;;17.30;86.80;;;;;;4996773;28;19909;-85
2023/09/08 06:33:51;;;;;;;;;;;17.30;86.70;;;;;;5013303;28;19913;-84
2023/09/08 06:36:17;;;;;;;;;;;17.40;86.70;;;;;;5013618;28;19910;-85
2023/09/08 06:38:43;;;;;;;;;;;17.50;86.80;;;;;;4994852;28;19918;-85
2023/09/08 06:41:10;;;;;;;;;;;17.60;87.10;;;;;;4995044;28;19959;-85
2023/09/08 06:43:35;;;;;;;;;;;17.70;87.20;;;;;;5012831;28;20382;-87
2023/09/08 06:46:01;;;;;;;;;;;17.80;87.30;;;;;;4995360;28;19959;-89
2023/09/08 06:48:26;;;;;;;;;;;17.90;87.20;;;;;;4995142;28;20378;-85
2023/09/08 06:50:56;;;;;;;;;;;18.00;87.10;;;;;;4995406;28;19920;-86
2023/09/08 06:53:22;;;;;;;;;;;18.00;86.70;;;;;;4995862;28;19933;-85
2023/09/08 06:55:47;;;;;;;;;;;18.00;86.50;;;;;;4994716;28;19913;-87
2023/09/08 06:58:14;;;;;;;;;;;18.10;86.20;;;;;;4994731;28;21680;-87
2023/09/08 07:00:40;;;;;;;;;;;18.10;86.00;;;;;;4995751;28;19917;-86
2023/09/08 07:03:06;;;;;;;;;;;18.30;85.40;;;;;;4995488;28;19955;-86
2023/09/08 07:05:31;;;;;;;;;;;18.30;84.90;;;;;;5013083;28;19956;-86
2023/09/08 07:07:56;;;;;;;;;;;18.40;84.40;;;;;;4995422;28;20398;-86
2023/09/08 07:10:22;;;;;;;;;;;18.50;83.70;;;;;;4994101;28;19921;-86
2023/09/08 07:12:48;;;;;;;;;;;18.60;83.30;;;;;;4995697;28;20056;-91
2023/09/08 07:15:13;;;;;;;;;;;18.60;83.30;;;;;;4998923;28;19917;-88
2023/09/08 07:17:39;;;;;;;;;;;18.70;82.90;;;;;;5036796;28;19944;-87
2023/09/08 07:20:05;;;;;;;;;;;18.80;82.40;;;;;;5016623;28;19905;-87
2023/09/08 07:22:31;;;;;;;;;;;18.90;82.50;;;;;;4997768;28;19972;-86
2023/09/08 07:24:56;;;;;;;;;;;19.10;82.30;;;;;;5001429;28;19948;-87
2023/09/08 07:27:21;;;;;;;;;;;19.10;81.60;;;;;;5013810;28;19913;-86
2023/09/08 07:29:49;;;;;;;;;;;19.30;81.70;;;;;;5014323;28;19983;-88
2023/09/08 07:32:15;;;;;;;;;;;19.30;81.40;;;;;;5031654;28;19909;-86
2023/09/08 07:34:40;;;;;;;;;;;19.50;81.10;;;;;;5014885;28;20380;-87
2023/09/08 07:37:06;;;;;;;;;;;19.60;80.90;;;;;;5014473;28;19920;-86
2023/09/08 07:39:32;;;;;;;;;;;19.80;81.00;;;;;;5035889;28;20382;-86
2023/09/08 07:41:58;;;;;;;;;;;19.90;80.90;;;;;;5023260;28;19909;-87
2023/09/08 07:44:23;;;;;;;;;;;20.00;81.10;;;;;;5014359;28;19971;-87
2023/09/08 07:46:51;;;;;;;;;;;20.10;80.00;;;;;;5013993;28;19917;-86
2023/09/08 07:49:18;;;;;;;;;;;20.20;80.10;;;;;;5014779;28;20354;-86
2023/09/08 07:51:44;;;;;;;;;;;20.30;79.90;;;;;;5018684;28;19909;-87
2023/09/08 07:54:09;;;;;;;;;;;20.40;78.30;;;;;;5018319;28;19925;-86
2023/09/08 07:56:35;;;;;;;;;;;20.50;77.90;;;;;;5019597;28;19917;-87
2023/09/08 07:59:00;;;;;;;;;;;20.70;77.50;;;;;;5019957;28;19917;-86
2023/09/08 08:01:26;;;;;;;;;;;20.90;76.70;;;;;;5019400;28;19909;-86
2023/09/08 08:03:51;;;;;;;;;;;21.00;75.60;;;;;;5006450;28;19915;-87
2023/09/08 08:06:17;;;;;;;;;;;21.10;75.40;;;;;;5032404;28;19917;-87
2023/09/08 08:08:42;;;;;;;;;;;21.10;75.70;;;;;;5016396;28;19917;-87
2023/09/08 08:11:08;;;;;;;;;;;21.10;75.20;;;;;;5016385;28;20009;-86
2023/09/08 08:13:34;;;;;;;;;;;21.30;75.60;;;;;;4999098;28;19909;-87
2023/09/08 08:15:59;;;;;;;;;;;21.40;74.50;;;;;;5030630;28;19932;-86
2023/09/08 08:18:25;;;;;;;;;;;21.40;73.90;;;;;;4998975;28;19924;-86
2023/09/08 08:20:50;;;;;;;;;;;21.50;74.70;;;;;;5009669;28;19936;-88
2023/09/08 08:23:16;;;;;;;;;;;21.50;75.30;;;;;;5039899;28;19921;-89
2023/09/08 08:25:41;;;;;;;;;;;21.50;75.80;;;;;;4999839;28;19918;-87
2023/09/08 08:28:06;;;;;;;;;;;21.60;75.30;;;;;;4999206;28;19913;-86
2023/09/08 08:30:32;;;;;;;;;;;21.70;75.00;;;;;;5015822;28;19949;-87
2023/09/08 08:32:58;;;;;;;;;;;21.80;73.20;;;;;;4998888;28;19910;-86
2023/09/08 08:35:23;;;;;;;;;;;21.90;74.70;;;;;;4998861;28;19936;-87
2023/09/08 08:37:49;;;;;;;;;;;22.00;73.40;;;;;;4998025;28;19926;-87
2023/09/08 08:40:15;;;;;;;;;;;22.00;71.30;;;;;;4998522;28;19909;-87
2023/09/08 08:42:41;;;;;;;;;;;22.00;72.50;;;;;;4998606;28;20004;-86
2023/09/08 08:45:07;;;;;;;;;;;22.10;72.60;;;;;;4997987;28;20329;-87
2023/09/08 08:47:32;;;;;;;;;;;22.20;71.60;;;;;;4998943;28;20370;-87
2023/09/08 08:49:58;;;;;;;;;;;22.30;71.30;;;;;;5016036;28;20060;-87
2023/09/08 08:52:25;;;;;;;;;;;22.40;72.10;;;;;;4998078;28;19916;-87
2023/09/08 08:54:50;;;;;;;;;;;22.60;71.90;;;;;;5029651;28;20512;-86
2023/09/08 08:57:16;;;;;;;;;;;22.60;70.80;;;;;;5054200;23;19949;-84
2023/09/08 08:59:41;;;;;;;;;;;22.80;71.30;;;;;;5043616;28;20285;-83
2023/09/08 09:02:08;;;;;;;;;;;23.00;69.70;;;;;;5016450;28;19909;-84
2023/09/08 09:04:36;;;;;;;;;;;23.00;68.00;;;;;;5036052;28;20392;-84
2023/09/08 09:07:02;;;;;;;;;;;23.10;67.40;;;;;;5036619;28;19919;-85
2023/09/08 09:09:28;;;;;;;;;;;23.20;69.70;;;;;;5022241;28;19996;-84
2023/09/08 09:11:53;;;;;;;;;;;23.30;69.90;;;;;;5038006;28;19909;-84
2023/09/08 09:14:19;;;;;;;;;;;23.30;69.50;;;;;;5039092;28;19909;-85
2023/09/08 09:16:45;;;;;;;;;;;23.40;67.80;;;;;;5037637;28;19915;-85
2023/09/08 09:19:17;;;;;;;;;;;23.70;65.50;;;;;;5017205;28;19909;-85
2023/09/08 09:21:44;;;;;;;;;;;23.80;66.00;;;;;;5034709;28;19910;-84
2023/09/08 09:24:13;;;;;;;;;;;23.80;68.10;;;;;;5017605;28;20390;-83
2023/09/08 09:26:39;;;;;;;;;;;24.10;65.40;;;;;;5017125;28;19910;-85
2023/09/08 09:29:11;;;;;;;;;;;24.10;65.40;;;;;;5018447;28;19960;-84
2023/09/08 09:31:40;;;;;;;;;;;24.10;63.70;;;;;;5017987;28;19909;-84
2023/09/08 09:34:06;;;;;;;;;;;24.20;64.50;;;;;;5005279;28;19963;-86
2023/09/08 09:36:31;;;;;;;;;;;24.20;62.50;;;;;;4997621;28;19909;-84
2023/09/08 09:39:00;;;;;;;;;;;24.30;61.50;;;;;;4997767;28;19917;-85
2023/09/08 09:41:30;;;;;;;;;;;24.40;62.00;;;;;;4997563;28;19910;-85
2023/09/08 09:43:56;;;;;;;;;;;24.40;61.30;;;;;;5018411;28;19987;-85
2023/09/08 09:46:21;;;;;;;;;;;24.60;61.00;;;;;;5000642;28;20393;-85
2023/09/08 09:48:50;;;;;;;;;;;24.60;63.10;;;;;;5000412;28;19910;-84
2023/09/08 09:51:16;;;;;;;;;;;24.60;62.70;;;;;;5018543;28;19916;-84
2023/09/08 09:53:42;;;;;;;;;;;24.80;62.10;;;;;;5000440;28;19910;-85
2023/09/08 09:56:09;;;;;;;;;;;25.00;59.20;;;;;;4998357;28;19928;-85
2023/09/08 09:58:35;;;;;;;;;;;25.20;59.40;;;;;;4998041;28;20324;-83
2023/09/08 10:01:07;;;;;;;;;;;25.30;58.80;;;;;;4997667;28;19945;-84
2023/09/08 10:03:33;;;;;;;;;;;25.30;60.10;;;;;;5006766;28;19909;-83
2023/09/08 10:05:59;;;;;;;;;;;25.20;62.00;;;;;;5035000;28;19909;-84
2023/09/08 10:08:24;;;;;;;;;;;25.30;59.30;;;;;;5034672;28;19959;-84
2023/09/08 10:10:50;;;;;;;;;;;25.50;59.90;;;;;;5034279;28;19913;-85
2023/09/08 10:13:26;;;;;;;;;;;25.60;58.40;;;;;;5033820;28;19916;-85
2023/09/08 10:15:52;;;;;;;;;;;25.50;60.80;;;;;;5025358;28;19975;-86
2023/09/08 10:18:19;;;;;;;;;;;25.40;60.40;;;;;;4998749;28;19921;-85
2023/09/08 10:20:44;;;;;;;;;;;25.40;61.80;;;;;;5015573;28;19948;-86
2023/09/08 10:26:16;;;;;;;;;;;25.30;60.60;;;;;;5011424;28;19917;-86
2023/09/08 10:28:41;;;;;;;;;;;25.50;60.50;;;;;;5012378;28;19918;-84
2023/09/08 10:31:11;;;;;;;;;;;25.60;59.10;;;;;;5012382;28;19928;-86
2023/09/08 10:33:37;;;;;;;;;;;25.70;58.90;;;;;;4995509;28;19960;-86
2023/09/08 10:36:04;;;;;;;;;;;25.70;59.80;;;;;;4993508;28;19913;-89
2023/09/08 10:38:34;;;;;;;;;;;25.60;59.50;;;;;;5014790;28;19961;-86
2023/09/08 10:41:15;;;;;;;;;;;25.70;59.10;;;;;;4986595;28;20016;-85
2023/09/08 10:44:08;;;;;;;;;;;25.70;59.60;;;;;;4980275;28;19918;-85
2023/09/08 10:58:35;;;;;;;;;;;26.00;56.90;;;;;;5038616;23;19932;-80
2023/09/08 11:01:01;;;;;;;;;;;26.00;57.70;;;;;;5013290;28;19920;-78
2023/09/08 11:03:28;;;;;;;;;;;26.10;56.40;;;;;;5021484;28;19917;-80
2023/09/08 11:05:54;;;;;;;;;;;26.00;56.50;;;;;;5021472;28;20677;-80
2023/09/08 11:08:19;;;;;;;;;;;26.10;55.30;;;;;;5019635;28;19925;-80
2023/09/08 11:10:45;;;;;;;;;;;26.10;55.50;;;;;;5022049;28;19921;-81
2023/09/08 11:13:10;;;;;;;;;;;26.20;54.80;;;;;;5018545;28;19914;-80
2023/09/08 11:15:37;;;;;;;;;;;26.40;54.50;;;;;;5027747;28;20392;-81
2023/09/08 11:18:06;;;;;;;;;;;26.40;53.90;;;;;;5012675;28;20341;-80
2023/09/08 11:23:09;;;;;;;;;;;26.70;54.10;;;;;;5032901;28;19971;-80
2023/09/08 11:25:35;;;;;;;;;;;26.80;52.70;;;;;;5032414;28;19912;-80
2023/09/08 11:28:01;;;;;;;;;;;26.60;53.70;;;;;;5010460;28;20420;-80
2023/09/08 11:32:51;;;;;;;;;;;26.50;54.20;;;;;;5016849;23;19929;-79
2023/09/08 11:35:20;;;;;;;;;;;26.50;53.50;;;;;;4988147;28;20020;-78
2023/09/08 11:37:46;;;;;;;;;;;26.80;52.30;;;;;;4998750;28;19930;-79
2023/09/08 11:40:16;;;;;;;;;;;27.10;50.60;;;;;;5009354;28;19913;-82
2023/09/08 11:42:55;;;;;;;;;;;27.30;49.80;;;;;;4996223;28;19917;-81
2023/09/08 11:45:22;;;;;;;;;;;27.40;50.30;;;;;;4969871;28;19917;-83
2023/09/08 11:47:49;;;;;;;;;;;27.50;49.80;;;;;;4988933;28;19914;-83
2023/09/08 11:50:17;;;;;;;;;;;27.30;50.80;;;;;;4982574;28;19964;-80
2023/09/08 11:52:46;;;;;;;;;;;27.20;52.40;;;;;;5014173;28;20406;-83
2023/09/08 11:55:13;;;;;;;;;;;27.10;50.70;;;;;;4998405;28;19917;-87
2023/09/08 11:57:39;;;;;;;;;;;27.10;52.20;;;;;;4984134;28;20265;-83
2023/09/08 12:00:05;;;;;;;;;;;27.00;53.40;;;;;;5003026;28;19918;-80
2023/09/08 12:02:37;;;;;;;;;;;27.10;51.80;;;;;;4994130;28;19913;-82
2023/09/08 12:05:10;;;;;;;;;;;27.20;51.00;;;;;;4998523;28;20348;-79
2023/09/08 12:07:37;;;;;;;;;;;27.20;49.80;;;;;;5016177;28;19936;-82
2023/09/08 12:10:09;;;;;;;;;;;27.40;49.50;;;;;;4995633;28;19920;-79
2023/09/08 12:12:41;;;;;;;;;;;27.60;50.90;;;;;;5018876;28;20305;-81
2023/09/08 12:15:06;;;;;;;;;;;27.50;51.80;;;;;;5000296;28;19921;-83
2023/09/08 12:17:32;;;;;;;;;;;27.40;50.70;;;;;;4989659;28;19921;-85
2023/09/08 12:19:57;;;;;;;;;;;27.30;52.40;;;;;;5011591;28;20384;-84
2023/09/08 12:22:23;;;;;;;;;;;27.30;51.30;;;;;;5009943;28;19914;-82
2023/09/08 12:24:49;;;;;;;;;;;27.20;51.40;;;;;;4987511;28;19972;-81
2023/09/08 12:27:16;;;;;;;;;;;27.30;52.10;;;;;;4978220;28;20622;-84
2023/09/08 12:29:51;;;;;;;;;;;27.10;52.80;;;;;;4995469;28;20258;-79
2023/09/08 12:32:16;;;;;;;;;;;27.20;53.10;;;;;;5016284;28;19926;-81
2023/09/08 12:34:43;;;;;;;;;;;27.10;53.10;;;;;;5018565;28;19921;-80
2023/09/08 12:37:11;;;;;;;;;;;27.10;52.40;;;;;;5007381;28;19970;-80
2023/09/08 12:39:38;;;;;;;;;;;27.00;53.20;;;;;;5007352;28;19968;-82
2023/09/08 12:42:03;;;;;;;;;;;27.00;53.40;;;;;;4995583;28;19917;-80
2023/09/08 12:44:29;;;;;;;;;;;27.10;52.50;;;;;;5016419;28;19909;-81
2023/09/08 12:46:54;;;;;;;;;;;27.20;52.50;;;;;;5006697;28;19928;-83
2023/09/08 12:49:20;;;;;;;;;;;27.20;52.20;;;;;;4990413;28;20296;-79
2023/09/08 12:51:45;;;;;;;;;;;27.10;52.30;;;;;;4990690;28;19976;-79
2023/09/08 12:54:11;;;;;;;;;;;27.20;53.90;;;;;;4998012;28;20008;-79
2023/09/08 12:56:36;;;;;;;;;;;27.50;52.80;;;;;;4998178;28;19921;-80
2023/09/08 12:59:02;;;;;;;;;;;27.40;52.90;;;;;;4982256;28;20380;-80
2023/09/08 13:01:28;;;;;;;;;;;27.60;51.90;;;;;;5023095;28;20479;-81
2023/09/08 13:03:53;;;;;;;;;;;27.70;52.00;;;;;;4996510;28;19968;-81
2023/09/08 13:06:19;;;;;;;;;;;27.60;51.20;;;;;;4998184;28;19922;-81
2023/09/08 13:08:44;;;;;;;;;;;27.60;52.50;;;;;;4985857;28;19914;-81
2023/09/08 13:11:10;;;;;;;;;;;27.70;49.60;;;;;;4989152;28;19924;-82
2023/09/08 13:13:35;;;;;;;;;;;27.80;49.30;;;;;;5006317;28;19958;-81
2023/09/08 13:16:01;;;;;;;;;;;27.70;49.30;;;;;;5011421;28;19914;-81
2023/09/08 13:18:26;;;;;;;;;;;27.80;49.30;;;;;;4991713;28;19952;-81
2023/09/08 13:20:52;;;;;;;;;;;28.00;48.10;;;;;;4989507;28;19913;-81
2023/09/08 13:23:17;;;;;;;;;;;28.00;49.60;;;;;;4976148;28;19917;-81
2023/09/08 13:25:44;;;;;;;;;;;27.90;49.50;;;;;;4999513;28;19914;-80
2023/09/08 13:28:10;;;;;;;;;;;28.00;49.20;;;;;;4989318;28;19913;-80
2023/09/08 13:30:35;;;;;;;;;;;27.80;49.80;;;;;;4995220;28;19965;-80
2023/09/08 13:33:01;;;;;;;;;;;27.60;50.10;;;;;;5003930;28;19925;-80
2023/09/08 13:35:26;;;;;;;;;;;27.50;52.10;;;;;;5000164;28;21561;-81
2023/09/08 13:37:52;;;;;;;;;;;27.50;50.60;;;;;;5013644;28;19917;-81
2023/09/08 13:40:20;;;;;;;;;;;27.60;50.60;;;;;;4986537;28;19917;-80
2023/09/08 13:42:46;;;;;;;;;;;27.90;49.20;;;;;;4978937;28;20001;-80
2023/09/08 13:45:11;;;;;;;;;;;28.20;47.90;;;;;;5016944;28;19913;-80
2023/09/08 13:47:38;;;;;;;;;;;28.30;48.10;;;;;;4990807;28;19914;-79
2023/09/08 13:50:03;;;;;;;;;;;28.20;49.40;;;;;;5012466;28;19922;-81
2023/09/08 13:52:29;;;;;;;;;;;28.00;49.60;;;;;;5013258;28;20016;-80
2023/09/08 13:54:54;;;;;;;;;;;28.00;49.80;;;;;;5016936;28;19936;-80
2023/09/08 13:57:21;;;;;;;;;;;28.10;47.40;;;;;;4992693;28;20663;-80
2023/09/08 13:59:46;;;;;;;;;;;28.10;48.20;;;;;;5012528;28;19913;-79
2023/09/08 14:02:12;;;;;;;;;;;28.10;48.60;;;;;;4994185;28;19936;-79
2023/09/08 14:04:39;;;;;;;;;;;28.30;46.20;;;;;;4998554;28;19931;-78
2023/09/08 14:07:05;;;;;;;;;;;28.30;46.60;;;;;;4997671;28;20036;-80
2023/09/08 14:09:30;;;;;;;;;;;28.10;49.20;;;;;;5015443;28;19914;-82
2023/09/08 14:11:56;;;;;;;;;;;28.00;49.40;;;;;;4998463;28;19959;-82
2023/09/08 14:14:22;;;;;;;;;;;27.90;49.50;;;;;;4988346;28;19928;-81
2023/09/08 14:16:47;;;;;;;;;;;28.00;49.00;;;;;;5015826;28;19913;-80
2023/09/08 14:19:12;;;;;;;;;;;28.10;47.40;;;;;;4992388;28;19932;-81
2023/09/08 14:21:39;;;;;;;;;;;28.00;49.50;;;;;;4974292;28;20052;-83
2023/09/08 14:24:05;;;;;;;;;;;27.80;49.20;;;;;;4993383;28;20008;-84
2023/09/08 14:26:31;;;;;;;;;;;27.70;49.80;;;;;;4996466;28;19918;-82
2023/09/08 14:28:56;;;;;;;;;;;27.60;50.90;;;;;;4984857;28;19960;-82
2023/09/08 14:31:22;;;;;;;;;;;27.50;51.90;;;;;;4979383;28;19963;-83